Aérodrome :
LOGIN :

S'inscrire | Disclaimer

   EN    FR    IT 

 










Légende :    VFR   VFR Marginal   IFR   IFR Intensif   IFR Très Intensif
Visi : 
Plafond : 
>= 8 km
>= 3000ft
5 à 8 km
1000 à 3000 ft
1500m à 5 km
500 à 1000 ft
800 à 1500m
200 à 500 ft
< 800m
< 200 ft
Symboles :   Orages  Brouillard  Fortes neiges  Fortes précipitations  Vent > 20 kt
SIGMETs :   Divers  Orages  Givrage  Turbulence  Onde Orograph.  Cendres Volcan.







- Altitude de l'aérodrome : 375 ft
- Code IATA : MST


EHBK - Maastricht Aachen

DERNIER METAR :
  • 181125Z AUTO 20004KT 170V240 2000 BR SCT002 BKN003 01/00 Q1020 BECMG 5000 BKN005

METARs EXPIRÉS :
  • 181055Z AUTO 20005KT 170V240 1100 R21/1200D BR OVC001 00/M00 Q1020 BECMG 5000 BKN005
  • 181025Z AUTO 21006KT 2600 BR BKN002 OVC003 00/M00 Q1020 BECMG 5000 BKN005
  • 180955Z AUTO 19005KT 160V230 3100 BR FEW001 OVC003 00/M00 Q1020 TEMPO 5000
  • 180925Z AUTO 24005KT 220V280 4200 BR BKN003 OVC005 00/M00 Q1020 TEMPO 5000 BKN004
  • 180855Z AUTO 22005KT 6000 FEW004 BKN005 OVC007 00/M00 Q1020 TEMPO BKN004

TAF COR TAF EHBK
Valide du 18 à 12h jusqu'au 19 à 18h UTC


181126Z 1812/1918 20003KT 2500 BR BKN002
BECMG 1812/1814 CAVOK
Pas de NOTAMs connus pour ce terrain.



MET'MAP, la Météo Aéronautique d'un coup d'oeil ! - Copyright ORBIFLY Décembre 2007 - Disclaimer

ORBIFLY MET'MAP TEAM :

Programmation & Développement : Alexandra Zaïnal
Conception & Développement : Baudouin d'Aumeries
Co-Programmation & Développement : Marc-Olivier Méhu
Soutien technique & logistique : Manuel Goepfert

Contact : metmap@orbifly.com




SOURCES & CREDITS :

   NOAA